createdAt,value
2023-06-29T00:03:07.000Z,27.88
2023-06-29T00:08:08.658Z,28.16
2023-06-29T00:13:10.232Z,27.72
2023-06-29T00:18:14.068Z,26.92
2023-06-29T00:23:15.638Z,27.23
2023-06-29T00:28:17.243Z,27.03
2023-06-29T00:33:18.875Z,27.40
2023-06-29T00:38:20.527Z,27.30
2023-06-29T00:43:22.170Z,27.67
2023-06-29T00:48:23.945Z,27.78
2023-06-29T00:53:25.751Z,27.45
2023-06-29T00:58:27.521Z,27.33
2023-06-29T01:03:29.523Z,27.76
2023-06-29T01:08:37.915Z,27.84
2023-06-29T01:13:45.551Z,27.37
2023-06-29T01:18:48.933Z,27.86
2023-06-29T01:23:55.577Z,27.40
2023-06-29T01:28:58.048Z,27.64
2023-06-29T01:34:00.130Z,27.36
2023-06-29T01:39:06.887Z,27.83
2023-06-29T01:44:12.264Z,27.71
2023-06-29T01:49:15.079Z,27.20
2023-06-29T01:54:16.892Z,27.47
2023-06-29T01:59:18.535Z,27.42
2023-06-29T02:04:20.111Z,26.87
2023-06-29T02:09:21.832Z,26.73
2023-06-29T02:14:23.475Z,26.49
2023-06-29T02:19:25.193Z,26.33
2023-06-29T02:24:27.015Z,26.70
2023-06-29T02:29:28.842Z,27.15
2023-06-29T02:34:31.634Z,27.08
2023-06-29T02:39:33.673Z,26.88
2023-06-29T02:44:35.938Z,26.02
2023-06-29T02:49:37.652Z,26.14
2023-06-29T02:54:40.352Z,26.44
2023-06-29T02:59:41.974Z,26.17
2023-06-29T03:04:43.652Z,26.45
2023-06-29T03:09:45.312Z,25.96
2023-06-29T03:14:47.109Z,26.24
2023-06-29T03:19:48.899Z,26.14
2023-06-29T03:24:50.457Z,26.29
2023-06-29T03:29:53.416Z,26.11
2023-06-29T03:34:54.999Z,26.39
2023-06-29T03:39:56.566Z,26.06
2023-06-29T03:44:58.140Z,26.00
2023-06-29T03:49:59.762Z,26.15
2023-06-29T03:55:01.412Z,26.62
2023-06-29T04:00:04.450Z,26.23
2023-06-29T04:05:14.426Z,26.43
2023-06-29T04:10:16.027Z,26.54
2023-06-29T04:15:17.622Z,26.86
2023-06-29T04:20:19.387Z,26.74
2023-06-29T04:25:21.110Z,26.80
2023-06-29T04:30:22.751Z,26.84
2023-06-29T04:35:24.408Z,26.85
2023-06-29T04:40:26.724Z,26.97
2023-06-29T04:45:29.897Z,26.68
2023-06-29T04:50:36.564Z,26.82
2023-06-29T04:55:39.462Z,27.20
2023-06-29T05:00:41.112Z,27.00
2023-06-29T05:05:42.956Z,26.17
2023-06-29T05:10:44.922Z,27.01
2023-06-29T05:15:49.047Z,26.67
2023-06-29T05:20:50.781Z,27.17
2023-06-29T05:25:52.356Z,27.07
2023-06-29T05:30:54.092Z,26.88
2023-06-29T05:35:55.760Z,26.69
2023-06-29T05:40:59.134Z,26.81
2023-06-29T05:46:03.950Z,27.30
2023-06-29T05:51:05.648Z,26.99
2023-06-29T05:56:07.295Z,27.35
2023-06-29T06:01:09.004Z,26.69
2023-06-29T06:06:10.859Z,27.18
2023-06-29T06:11:12.497Z,27.16
2023-06-29T06:16:14.211Z,27.02
2023-06-29T06:21:15.839Z,26.96
2023-06-29T06:26:17.547Z,26.89
2023-06-29T06:31:32.488Z,27.64
2023-06-29T06:36:35.859Z,26.56
2023-06-29T06:41:37.494Z,27.21
2023-06-29T06:46:39.206Z,26.87
2023-06-29T06:51:41.019Z,27.29
2023-06-29T06:56:42.639Z,27.46
2023-06-29T07:01:44.433Z,27.31
2023-06-29T07:06:47.750Z,27.13
2023-06-29T07:11:49.849Z,27.64
2023-06-29T07:16:51.670Z,27.62
2023-06-29T07:26:57.793Z,27.16
2023-06-29T07:31:59.375Z,27.96
2023-06-29T07:37:01.386Z,28.59
2023-06-29T07:42:03.256Z,27.33
2023-06-29T07:47:05.733Z,26.95
2023-06-29T07:52:07.593Z,27.86
2023-06-29T08:02:14.403Z,27.58
2023-06-29T08:07:16.281Z,27.61
2023-06-29T08:12:17.980Z,27.29
2023-06-29T08:17:19.712Z,28.33
2023-06-29T08:22:21.433Z,27.30
2023-06-29T08:27:23.205Z,28.35
2023-06-29T08:32:24.878Z,28.18
2023-06-29T08:37:27.668Z,28.57
2023-06-29T08:42:29.433Z,28.20
2023-06-29T08:47:36.092Z,28.58
2023-06-29T08:52:40.202Z,28.11
2023-06-29T08:57:42.066Z,28.24
2023-06-29T09:02:44.725Z,28.31
2023-06-29T09:07:46.562Z,28.39
2023-06-29T09:12:48.681Z,28.12
2023-06-29T09:17:55.577Z,28.54
2023-06-29T09:23:15.825Z,28.65
2023-06-29T09:28:18.368Z,29.53
2023-06-29T09:33:38.851Z,29.33
2023-06-29T09:38:41.026Z,28.45
2023-06-29T09:43:42.653Z,29.68
2023-06-29T09:53:52.914Z,31.54
2023-06-29T09:58:57.024Z,31.78
2023-06-29T10:03:58.851Z,30.70
2023-06-29T10:09:01.353Z,31.21
2023-06-29T10:14:05.593Z,31.63
2023-06-29T10:19:24.216Z,31.84
2023-06-29T10:24:37.112Z,31.44
2023-06-29T10:29:51.727Z,30.72
2023-06-29T10:35:02.746Z,31.92
2023-06-29T10:40:14.723Z,31.95
2023-06-29T10:45:19.463Z,32.05
2023-06-29T10:50:23.171Z,32.19
2023-06-29T10:55:27.109Z,32.55
2023-06-29T11:00:28.846Z,32.35
2023-06-29T11:05:34.366Z,31.90
2023-06-29T11:10:36.798Z,32.20
2023-06-29T11:15:39.223Z,30.59
2023-06-29T11:20:40.961Z,31.13
2023-06-29T11:25:42.834Z,30.81
2023-06-29T11:30:45.583Z,31.84
2023-06-29T11:35:48.955Z,30.67
2023-06-29T11:40:50.701Z,32.66
2023-06-29T11:45:52.652Z,31.76
2023-06-29T11:51:00.345Z,31.98
2023-06-29T11:56:02.162Z,31.61
2023-06-29T12:01:03.937Z,31.49
2023-06-29T12:06:05.775Z,31.29
2023-06-29T12:11:15.322Z,30.88
2023-06-29T12:21:24.578Z,31.44
2023-06-29T12:26:26.650Z,32.33
2023-06-29T12:31:29.257Z,31.50
2023-06-29T12:36:32.205Z,31.12
2023-06-29T12:41:34.240Z,31.16
2023-06-29T12:46:36.105Z,30.15
2023-06-29T12:51:37.735Z,30.85
2023-06-29T12:56:40.668Z,30.19
2023-06-29T13:01:42.344Z,30.79
2023-06-29T13:06:44.031Z,30.22
2023-06-29T13:11:45.782Z,31.03
2023-06-29T13:16:47.945Z,30.69
2023-06-29T13:21:49.641Z,31.64
2023-06-29T13:26:51.380Z,31.51
2023-06-29T13:31:53.029Z,30.85
2023-06-29T13:36:55.532Z,31.63
2023-06-29T13:41:57.242Z,31.20
2023-06-29T13:46:59.585Z,31.56
2023-06-29T13:52:02.393Z,30.87
2023-06-29T13:57:05.063Z,29.56
2023-06-29T14:02:10.272Z,30.93
2023-06-29T14:07:12.184Z,30.54
2023-06-29T14:12:13.871Z,31.61
2023-06-29T14:17:20.338Z,31.12
2023-06-29T14:22:22.228Z,29.89
2023-06-29T14:27:24.078Z,29.87
2023-06-29T14:32:25.853Z,31.01
2023-06-29T14:37:29.719Z,31.37
2023-06-29T14:42:32.087Z,30.07
2023-06-29T14:47:33.817Z,30.14
2023-06-29T14:52:35.705Z,30.25
2023-06-29T14:57:37.471Z,29.56
2023-06-29T15:02:39.201Z,29.41
2023-06-29T15:07:41.714Z,29.15
2023-06-29T15:12:43.438Z,29.81
2023-06-29T15:17:45.118Z,26.67
2023-06-29T15:22:46.912Z,26.04
2023-06-29T15:27:48.774Z,25.60
2023-06-29T15:32:50.574Z,24.98
2023-06-29T15:37:53.611Z,25.58
2023-06-29T15:42:55.897Z,25.56
2023-06-29T15:47:57.593Z,26.29
2023-06-29T15:52:59.318Z,27.20
2023-06-29T15:58:00.915Z,26.68
2023-06-29T16:03:02.699Z,27.28
2023-06-29T16:08:04.712Z,27.85
2023-06-29T16:13:06.320Z,26.79
2023-06-29T16:18:08.065Z,27.12
2023-06-29T16:23:09.864Z,27.04
2023-06-29T16:28:11.518Z,27.03
2023-06-29T16:33:13.651Z,27.09
2023-06-29T16:38:15.289Z,26.37
2023-06-29T16:43:16.994Z,26.87
2023-06-29T16:48:18.645Z,26.77
2023-06-29T16:53:20.224Z,27.32
2023-06-29T16:58:21.885Z,28.48
2023-06-29T17:03:23.518Z,27.29
2023-06-29T17:08:25.306Z,27.52
2023-06-29T17:13:28.520Z,27.47
2023-06-29T17:18:30.536Z,27.69
2023-06-29T17:23:32.667Z,28.10
2023-06-29T17:28:34.247Z,27.91
2023-06-29T17:33:45.594Z,28.23
2023-06-29T17:38:56.044Z,28.79
2023-06-29T17:43:57.677Z,28.43
2023-06-29T17:48:59.713Z,28.54
2023-06-29T17:54:01.353Z,28.72
2023-06-29T17:59:03.144Z,28.64
2023-06-29T18:04:04.965Z,28.45
2023-06-29T18:09:06.670Z,28.11
2023-06-29T18:14:08.371Z,27.73
2023-06-29T18:19:10.019Z,28.32
2023-06-29T18:24:11.725Z,28.86
2023-06-29T18:29:13.356Z,27.58
2023-06-29T18:34:14.968Z,26.96
2023-06-29T18:39:17.847Z,25.92
2023-06-29T18:44:19.606Z,25.72
2023-06-29T18:49:21.169Z,26.42
2023-06-29T18:54:41.069Z,25.54
2023-06-29T18:59:44.006Z,25.00
2023-06-29T19:04:45.842Z,24.54
2023-06-29T19:09:47.801Z,24.95
2023-06-29T19:14:49.410Z,24.03
2023-06-29T19:19:50.974Z,24.44
2023-06-29T19:24:52.608Z,24.29
2023-06-29T19:29:54.348Z,24.08
2023-06-29T19:34:56.082Z,24.27
2023-06-29T19:39:57.667Z,25.06
2023-06-29T19:44:59.402Z,24.51
2023-06-29T19:50:01.052Z,24.57
2023-06-29T19:55:02.916Z,24.58
2023-06-29T20:00:05.237Z,24.99
2023-06-29T20:05:26.439Z,24.94
2023-06-29T20:10:28.051Z,24.32
2023-06-29T20:15:29.729Z,24.29
2023-06-29T20:20:31.516Z,23.95
2023-06-29T20:25:42.857Z,23.62
2023-06-29T20:30:44.766Z,23.62
2023-06-29T20:35:46.622Z,23.52
2023-06-29T20:40:48.532Z,23.55
2023-06-29T20:45:50.828Z,23.04
2023-06-29T20:51:03.743Z,22.90
2023-06-29T20:56:17.074Z,22.40
2023-06-29T21:01:18.948Z,21.53
2023-06-29T21:06:20.704Z,22.30
2023-06-29T21:11:22.675Z,22.94
2023-06-29T21:16:24.793Z,22.40
2023-06-29T21:21:27.221Z,22.95
2023-06-29T21:26:28.937Z,23.42
2023-06-29T21:31:34.561Z,22.88
2023-06-29T21:36:36.582Z,23.22
2023-06-29T21:41:38.433Z,23.17
2023-06-29T21:46:40.098Z,23.09
2023-06-29T21:51:41.896Z,23.10
2023-06-29T21:56:45.672Z,23.91
2023-06-29T22:01:47.373Z,23.30
2023-06-29T22:06:51.952Z,23.80
2023-06-29T22:11:58.605Z,24.38
2023-06-29T22:17:00.242Z,24.42
2023-06-29T22:22:01.936Z,24.12
2023-06-29T22:27:04.718Z,24.21
2023-06-29T22:32:06.957Z,24.38
2023-06-29T22:37:08.543Z,25.21
2023-06-29T22:42:10.137Z,25.03
2023-06-29T22:47:11.846Z,24.90
2023-06-29T22:52:13.421Z,24.45
2023-06-29T22:57:15.224Z,24.88
2023-06-29T23:02:17.743Z,24.00
2023-06-29T23:07:19.762Z,24.84
2023-06-29T23:12:22.213Z,24.52
2023-06-29T23:17:24.597Z,23.95
2023-06-29T23:22:28.755Z,23.83
2023-06-29T23:27:30.591Z,23.91
2023-06-29T23:32:32.258Z,23.86
2023-06-29T23:37:33.941Z,23.87
2023-06-29T23:42:36.040Z,23.54
2023-06-29T23:47:39.497Z,23.64
2023-06-29T23:52:42.272Z,23.39
2023-06-29T23:57:44.431Z,23.13
